Time;durP1;ratioP1;P1;durP2;ratioP2;P2;SDS_P1;SDS_P2;PMS_P1;PMS_P2;Temp;Humidity;BMP_temperature;BMP_pressure;BME280_temperature;BME280_humidity;BME280_pressure;Samples;Min_cycle;Max_cycle;Signal;HPM_P1;HPM_P2
2022/05/06 00:02:24;;;;;;;8.93;6.47;;;;;;;;;;5038400;28;20049;-74
2022/05/06 00:04:54;;;;;;;10.02;6.22;;;;;;;;;;5054582;28;20083;-75
2022/05/06 00:07:21;;;;;;;13.65;5.90;;;;;;;;;;5051253;28;20388;-75
2022/05/06 00:09:47;;;;;;;11.75;6.55;;;;;;;;;;5048955;28;20024;-74
2022/05/06 00:12:17;;;;;;;7.47;6.13;;;;;;;;;;5049304;28;20033;-75
2022/05/06 00:14:44;;;;;;;14.50;7.13;;;;;;;;;;5042199;28;20416;-76
2022/05/06 00:17:11;;;;;;;15.63;9.13;;;;;;;;;;5031370;28;20025;-76
2022/05/06 00:19:38;;;;;;;14.63;9.13;;;;;;;;;;5034560;28;20033;-76
2022/05/06 00:22:04;;;;;;;15.13;9.25;;;;;;;;;;5034519;28;20447;-76
2022/05/06 00:24:31;;;;;;;17.08;9.27;;;;;;;;;;5034269;28;20361;-75
2022/05/06 00:26:58;;;;;;;16.70;10.18;;;;;;;;;;5042439;28;20162;-78
2022/05/06 00:29:24;;;;;;;14.07;9.93;;;;;;;;;;5052073;28;20025;-75
2022/05/06 00:31:51;;;;;;;15.65;9.85;;;;;;;;;;5046978;28;20029;-75
2022/05/06 00:34:18;;;;;;;17.92;9.15;;;;;;;;;;5048700;28;20535;-77
2022/05/06 00:36:45;;;;;;;14.93;10.07;;;;;;;;;;5048751;28;20025;-79
2022/05/06 00:39:12;;;;;;;12.65;9.18;;;;;;;;;;5049840;28;20033;-79
2022/05/06 00:41:39;;;;;;;20.48;9.68;;;;;;;;;;5049273;28;20013;-79
2022/05/06 00:44:09;;;;;;;17.27;10.52;;;;;;;;;;5033314;28;20107;-79
2022/05/06 00:46:39;;;;;;;15.93;10.73;;;;;;;;;;5032051;28;20567;-79
2022/05/06 00:49:14;;;;;;;20.27;10.52;;;;;;;;;;5032433;28;20036;-79
2022/05/06 00:51:40;;;;;;;19.83;10.32;;;;;;;;;;5031010;28;20108;-77
2022/05/06 00:54:08;;;;;;;15.07;10.48;;;;;;;;;;5034688;28;20037;-78
2022/05/06 00:56:34;;;;;;;19.20;9.50;;;;;;;;;;5047058;28;20025;-79
2022/05/06 00:59:01;;;;;;;17.80;9.55;;;;;;;;;;5046896;28;20056;-79
2022/05/06 01:01:29;;;;;;;11.82;8.88;;;;;;;;;;5047969;28;20033;-79
2022/05/06 01:03:56;;;;;;;22.60;9.85;;;;;;;;;;5053608;28;20479;-78
2022/05/06 01:06:23;;;;;;;24.02;10.05;;;;;;;;;;5043829;28;20554;-76
2022/05/06 01:08:49;;;;;;;13.18;9.07;;;;;;;;;;5033351;28;20061;-76
2022/05/06 01:11:17;;;;;;;15.10;9.43;;;;;;;;;;5033512;28;20029;-79
2022/05/06 01:13:45;;;;;;;14.20;9.73;;;;;;;;;;5032298;28;20108;-79
2022/05/06 01:16:12;;;;;;;14.90;9.77;;;;;;;;;;5027583;28;20443;-79
2022/05/06 01:18:39;;;;;;;17.95;9.27;;;;;;;;;;5037061;28;20047;-79
2022/05/06 01:21:06;;;;;;;14.82;10.40;;;;;;;;;;5047734;28;20051;-76
2022/05/06 01:23:33;;;;;;;15.60;9.50;;;;;;;;;;5030107;28;20376;-76
2022/05/06 01:26:00;;;;;;;16.87;9.90;;;;;;;;;;5052950;28;20024;-76
2022/05/06 01:28:27;;;;;;;15.77;9.90;;;;;;;;;;5051336;28;20514;-76
2022/05/06 01:31:01;;;;;;;16.43;10.30;;;;;;;;;;5053211;28;20029;-76
2022/05/06 01:33:31;;;;;;;14.93;9.73;;;;;;;;;;5052296;28;20043;-77
2022/05/06 01:36:01;;;;;;;15.50;11.03;;;;;;;;;;5052608;28;20020;-77
2022/05/06 01:38:35;;;;;;;23.53;10.03;;;;;;;;;;5045766;28;20025;-76
2022/05/06 01:41:08;;;;;;;12.93;9.43;;;;;;;;;;5027463;28;20361;-77
2022/05/06 01:43:42;;;;;;;13.10;8.70;;;;;;;;;;5027542;28;20068;-77
2022/05/06 01:46:10;;;;;;;15.88;10.25;;;;;;;;;;5027519;28;20037;-77
2022/05/06 01:48:37;;;;;;;14.57;9.43;;;;;;;;;;5032684;28;20458;-77
2022/05/06 01:51:04;;;;;;;15.67;9.37;;;;;;;;;;5036505;28;20025;-77
2022/05/06 01:53:30;;;;;;;15.73;10.13;;;;;;;;;;5052560;28;20067;-77
2022/05/06 01:55:57;;;;;;;17.93;9.17;;;;;;;;;;5033660;28;20381;-77
2022/05/06 01:58:26;;;;;;;12.67;9.37;;;;;;;;;;5031813;28;20056;-77
2022/05/06 02:00:53;;;;;;;17.00;9.87;;;;;;;;;;5026646;28;20460;-78
2022/05/06 02:06:05;;;;;;;13.83;10.10;;;;;;;;;;5046727;28;20039;-77
2022/05/06 02:08:31;;;;;;;16.63;10.23;;;;;;;;;;5047226;28;20418;-77
2022/05/06 02:10:58;;;;;;;17.47;10.13;;;;;;;;;;5052301;28;20147;-76
2022/05/06 02:13:24;;;;;;;17.20;9.83;;;;;;;;;;5052312;28;20029;-76
2022/05/06 02:15:51;;;;;;;25.47;11.03;;;;;;;;;;5041372;28;20108;-77
2022/05/06 02:18:18;;;;;;;18.17;11.23;;;;;;;;;;5032459;28;20071;-76
2022/05/06 02:20:45;;;;;;;19.60;10.73;;;;;;;;;;5031930;28;20018;-77
2022/05/06 02:23:12;;;;;;;19.80;10.17;;;;;;;;;;5026604;28;20018;-76
2022/05/06 02:25:39;;;;;;;17.10;10.20;;;;;;;;;;5044794;28;20394;-77
2022/05/06 02:28:07;;;;;;;17.50;9.63;;;;;;;;;;5046708;28;20583;-76
2022/05/06 02:33:23;;;;;;;16.17;9.80;;;;;;;;;;5051976;28;20134;-77
2022/05/06 02:35:50;;;;;;;16.13;9.27;;;;;;;;;;5032380;28;20043;-77
2022/05/06 02:38:17;;;;;;;15.63;9.87;;;;;;;;;;5032160;28;20385;-76
2022/05/06 02:40:43;;;;;;;15.13;9.93;;;;;;;;;;5032074;28;20053;-77
2022/05/06 02:43:10;;;;;;;17.20;9.77;;;;;;;;;;5031470;28;20013;-76
2022/05/06 02:45:36;;;;;;;19.63;10.53;;;;;;;;;;5028891;28;20039;-77
2022/05/06 02:48:03;;;;;;;13.43;9.20;;;;;;;;;;5046537;28;20074;-77
2022/05/06 02:50:30;;;;;;;21.57;9.60;;;;;;;;;;5046495;28;20025;-77
2022/05/06 02:52:56;;;;;;;17.00;9.97;;;;;;;;;;5046021;28;20071;-77
2022/05/06 02:55:26;;;;;;;20.83;10.27;;;;;;;;;;5051588;28;20047;-77
2022/05/06 02:57:53;;;;;;;22.10;10.27;;;;;;;;;;5043988;28;20034;-76
2022/05/06 03:00:19;;;;;;;17.13;10.77;;;;;;;;;;5032980;28;20037;-76
2022/05/06 03:02:46;;;;;;;15.27;10.57;;;;;;;;;;5031573;28;20468;-77
2022/05/06 03:05:13;;;;;;;19.43;9.97;;;;;;;;;;5031994;28;20025;-77
2022/05/06 03:07:40;;;;;;;17.83;11.27;;;;;;;;;;5026984;28;20029;-77
2022/05/06 03:10:07;;;;;;;20.83;13.03;;;;;;;;;;5026770;28;20021;-77
2022/05/06 03:12:34;;;;;;;27.33;12.63;;;;;;;;;;5026595;28;20081;-77
2022/05/06 03:15:03;;;;;;;22.03;12.30;;;;;;;;;;5027224;28;20037;-77
2022/05/06 03:17:31;;;;;;;22.43;11.47;;;;;;;;;;5030715;28;20059;-77
2022/05/06 03:19:58;;;;;;;20.57;12.10;;;;;;;;;;5031400;28;20032;-78
2022/05/06 03:22:25;;;;;;;20.17;11.93;;;;;;;;;;5035626;28;20068;-77
2022/05/06 03:24:52;;;;;;;22.27;13.50;;;;;;;;;;5037413;28;20029;-77
2022/05/06 03:30:03;;;;;;;;;;;;;;;;;;5050628;28;20570;-76
2022/05/06 03:32:31;;;;;;;22.23;13.77;;;;;;;;;;5049593;28;19936;-76
2022/05/06 03:34:58;;;;;;;19.17;13.80;;;;;;;;;;5049531;28;20036;-78
2022/05/06 03:37:25;;;;;;;19.90;13.63;;;;;;;;;;5041019;28;20025;-77
2022/05/06 03:39:51;;;;;;;17.37;12.80;;;;;;;;;;5045871;28;20108;-77
2022/05/06 03:42:18;;;;;;;21.43;14.00;;;;;;;;;;5055181;28;20057;-78
2022/05/06 03:44:45;;;;;;;17.33;12.63;;;;;;;;;;5055076;28;20031;-77
2022/05/06 03:47:12;;;;;;;19.67;14.43;;;;;;;;;;5055022;28;20025;-77
2022/05/06 03:49:38;;;;;;;23.70;14.13;;;;;;;;;;5042410;28;20037;-78
2022/05/06 03:52:05;;;;;;;19.97;14.67;;;;;;;;;;5030168;28;20056;-78
2022/05/06 03:54:33;;;;;;;20.53;14.13;;;;;;;;;;5029600;28;20083;-78
2022/05/06 03:56:59;;;;;;;17.10;12.43;;;;;;;;;;5029704;28;20053;-78
2022/05/06 03:59:26;;;;;;;20.57;13.23;;;;;;;;;;5029195;28;20472;-77
2022/05/06 04:01:52;;;;;;;16.13;12.80;;;;;;;;;;5040461;28;20025;-78
2022/05/06 04:04:19;;;;;;;20.90;12.47;;;;;;;;;;5054694;28;20021;-77
2022/05/06 04:06:47;;;;;;;19.33;12.83;;;;;;;;;;5054339;28;20029;-78
2022/05/06 04:09:13;;;;;;;14.03;11.27;;;;;;;;;;5054138;28;20018;-77
2022/05/06 04:11:40;;;;;;;15.73;10.50;;;;;;;;;;5054681;28;20025;-76
2022/05/06 04:14:09;;;;;;;18.67;12.07;;;;;;;;;;5034322;28;20044;-77
2022/05/06 04:16:36;;;;;;;14.43;11.07;;;;;;;;;;5030074;28;20029;-77
2022/05/06 04:19:03;;;;;;;20.47;11.33;;;;;;;;;;5028957;28;20017;-78
2022/05/06 04:24:14;;;;;;;16.23;10.95;;;;;;;;;;5040725;28;20444;-78
2022/05/06 04:26:41;;;;;;;19.93;9.97;;;;;;;;;;5054107;28;20021;-76
2022/05/06 04:29:07;;;;;;;23.60;9.67;;;;;;;;;;5054193;28;20028;-76
2022/05/06 04:31:35;;;;;;;19.13;10.63;;;;;;;;;;5053326;28;20044;-76
2022/05/06 04:34:02;;;;;;;18.50;10.27;;;;;;;;;;5046417;28;20025;-76
2022/05/06 04:36:29;;;;;;;19.30;9.43;;;;;;;;;;5030520;28;20033;-76
2022/05/06 04:38:55;;;;;;;13.73;8.83;;;;;;;;;;5028342;28;20021;-78
2022/05/06 04:41:22;;;;;;;16.77;11.40;;;;;;;;;;5028479;28;20046;-76
2022/05/06 04:43:48;;;;;;;18.53;11.43;;;;;;;;;;5028683;28;20038;-76
2022/05/06 04:46:15;;;;;;;13.83;9.27;;;;;;;;;;5037080;28;20025;-76
2022/05/06 04:48:42;;;;;;;12.93;10.07;;;;;;;;;;5053692;28;20025;-78
2022/05/06 04:51:08;;;;;;;18.83;11.27;;;;;;;;;;5053786;28;20025;-77
2022/05/06 04:53:35;;;;;;;14.97;10.30;;;;;;;;;;5053688;28;20029;-76
2022/05/06 04:56:01;;;;;;;14.20;10.43;;;;;;;;;;5053372;28;20028;-80
2022/05/06 04:58:29;;;;;;;17.37;10.60;;;;;;;;;;5040602;28;20444;-78
2022/05/06 05:00:55;;;;;;;18.33;11.03;;;;;;;;;;5028124;28;20063;-77
2022/05/06 05:03:22;;;;;;;17.10;10.67;;;;;;;;;;5028137;28;20037;-77
2022/05/06 05:05:49;;;;;;;15.70;11.30;;;;;;;;;;5028207;28;20423;-78
2022/05/06 05:08:15;;;;;;;14.47;10.93;;;;;;;;;;5030875;28;20570;-78
2022/05/06 05:10:42;;;;;;;17.70;10.13;;;;;;;;;;5033517;28;20078;-79
2022/05/06 05:13:08;;;;;;;19.13;11.53;;;;;;;;;;5033399;28;20030;-79
2022/05/06 05:15:35;;;;;;;20.80;12.53;;;;;;;;;;5032776;28;20034;-76
2022/05/06 05:18:02;;;;;;;15.00;10.53;;;;;;;;;;5046866;28;20378;-76
2022/05/06 05:20:28;;;;;;;16.83;11.00;;;;;;;;;;5051662;28;20028;-79
2022/05/06 05:22:55;;;;;;;13.80;10.33;;;;;;;;;;5047457;28;20416;-76
2022/05/06 05:25:22;;;;;;;17.20;12.17;;;;;;;;;;5047739;28;20090;-76
2022/05/06 05:27:48;;;;;;;19.10;11.40;;;;;;;;;;5047659;28;20057;-76
2022/05/06 05:30:15;;;;;;;15.30;10.03;;;;;;;;;;5031629;28;20030;-78
2022/05/06 05:32:42;;;;;;;11.47;9.07;;;;;;;;;;5032563;28;20021;-79
2022/05/06 05:35:09;;;;;;;19.77;11.80;;;;;;;;;;5015325;28;20396;-78
2022/05/06 05:37:35;;;;;;;17.43;10.80;;;;;;;;;;5033083;28;20393;-79
2022/05/06 05:40:02;;;;;;;15.60;11.77;;;;;;;;;;5032862;28;20357;-78
2022/05/06 05:42:29;;;;;;;16.93;11.70;;;;;;;;;;5048909;28;20021;-80
2022/05/06 05:50:27;;;;;;;15.93;9.77;;;;;;;;;;5047142;28;19931;-78
2022/05/06 05:52:55;;;;;;;15.83;9.87;;;;;;;;;;5044894;28;20048;-78
2022/05/06 05:55:22;;;;;;;14.07;11.30;;;;;;;;;;5032798;28;20469;-78
2022/05/06 05:57:48;;;;;;;17.77;11.00;;;;;;;;;;5032475;28;20024;-79
2022/05/06 06:00:15;;;;;;;16.33;11.37;;;;;;;;;;5032335;28;20030;-79
2022/05/06 06:02:42;;;;;;;17.70;11.03;;;;;;;;;;5032618;28;20032;-80
2022/05/06 06:05:08;;;;;;;18.50;12.50;;;;;;;;;;5034903;28;20480;-79
2022/05/06 06:07:35;;;;;;;19.63;11.33;;;;;;;;;;5046717;28;20025;-79
2022/05/06 06:10:02;;;;;;;15.33;11.03;;;;;;;;;;5046919;28;20636;-79
2022/05/06 06:12:28;;;;;;;15.00;11.60;;;;;;;;;;5046949;28;20159;-79
2022/05/06 06:14:56;;;;;;;15.63;10.70;;;;;;;;;;5047226;28;20040;-78
2022/05/06 06:17:23;;;;;;;22.13;12.10;;;;;;;;;;5043130;28;20381;-79
2022/05/06 06:19:49;;;;;;;18.63;10.77;;;;;;;;;;5032383;28;20096;-79
2022/05/06 06:22:16;;;;;;;13.10;9.20;;;;;;;;;;5032308;28;20030;-76
2022/05/06 06:24:42;;;;;;;15.33;9.30;;;;;;;;;;5032098;28;20468;-77
2022/05/06 06:27:09;;;;;;;11.70;9.57;;;;;;;;;;5031679;28;20025;-79
2022/05/06 06:29:36;;;;;;;12.53;9.30;;;;;;;;;;5037365;28;20025;-78
2022/05/06 06:32:03;;;;;;;13.17;10.00;;;;;;;;;;5046604;28;20056;-78
2022/05/06 06:34:30;;;;;;;16.77;10.27;;;;;;;;;;5046265;28;20029;-79
2022/05/06 06:36:56;;;;;;;12.33;10.17;;;;;;;;;;5046706;28;20029;-78
2022/05/06 06:39:23;;;;;;;14.60;9.73;;;;;;;;;;5051686;28;20033;-79
2022/05/06 06:41:50;;;;;;;13.80;9.77;;;;;;;;;;5040824;28;20095;-76
2022/05/06 06:44:16;;;;;;;15.93;9.37;;;;;;;;;;5032034;28;20032;-77
2022/05/06 06:46:43;;;;;;;13.57;8.57;;;;;;;;;;5032040;28;20453;-77
2022/05/06 06:49:11;;;;;;;13.27;9.20;;;;;;;;;;5031879;28;20025;-79
2022/05/06 06:51:37;;;;;;;20.10;12.07;;;;;;;;;;5026296;28;20520;-79
2022/05/06 06:54:04;;;;;;;19.53;11.57;;;;;;;;;;5037140;28;20110;-77
2022/05/06 06:56:31;;;;;;;17.27;9.87;;;;;;;;;;5049188;28;20365;-76
2022/05/06 06:58:58;;;;;;;15.07;10.63;;;;;;;;;;5050264;28;20025;-76
2022/05/06 07:01:25;;;;;;;11.13;8.20;;;;;;;;;;5054585;28;20368;-78
2022/05/06 07:03:51;;;;;;;17.23;11.73;;;;;;;;;;5055895;28;20025;-76
2022/05/06 07:11:54;;;;;;;;;;;;;;;;;;5035806;28;20099;-79
2022/05/06 07:14:21;;;;;;;11.90;8.77;;;;;;;;;;5030100;28;19963;-78
2022/05/06 07:16:51;;;;;;;13.30;9.37;;;;;;;;;;5029713;28;20021;-80
2022/05/06 07:19:18;;;;;;;15.70;10.23;;;;;;;;;;5046451;28;20029;-78
2022/05/06 07:21:45;;;;;;;14.13;9.27;;;;;;;;;;5049937;28;20771;-76
2022/05/06 07:24:11;;;;;;;22.90;9.17;;;;;;;;;;5055454;28;20180;-76
2022/05/06 07:26:38;;;;;;;15.60;9.93;;;;;;;;;;5055337;28;20028;-78
2022/05/06 07:29:04;;;;;;;16.33;10.40;;;;;;;;;;5055441;28;20031;-78
2022/05/06 07:31:31;;;;;;;16.77;11.33;;;;;;;;;;5038751;28;20029;-78
2022/05/06 07:33:58;;;;;;;13.87;10.43;;;;;;;;;;5034670;28;20038;-79
2022/05/06 07:36:24;;;;;;;14.60;10.53;;;;;;;;;;5029731;28;20101;-78
2022/05/06 07:38:51;;;;;;;14.90;10.63;;;;;;;;;;5029634;28;20499;-79
2022/05/06 07:41:18;;;;;;;18.40;10.17;;;;;;;;;;5029777;28;20480;-76
2022/05/06 07:43:45;;;;;;;13.53;10.53;;;;;;;;;;5045639;28;20029;-77
2022/05/06 07:46:12;;;;;;;15.37;10.97;;;;;;;;;;5054175;28;20108;-78
2022/05/06 07:48:39;;;;;;;16.20;10.80;;;;;;;;;;5054892;28;20021;-79
2022/05/06 07:51:06;;;;;;;15.90;9.73;;;;;;;;;;5054266;28;20101;-79
2022/05/06 07:53:33;;;;;;;18.83;13.37;;;;;;;;;;5053825;28;20030;-78
2022/05/06 07:56:00;;;;;;;16.13;10.83;;;;;;;;;;5034803;28;20468;-78
2022/05/06 07:58:27;;;;;;;14.80;10.70;;;;;;;;;;5030024;28;21499;-76
2022/05/06 08:00:53;;;;;;;17.30;12.33;;;;;;;;;;5029377;28;20399;-76
2022/05/06 08:06:05;;;;;;;14.27;11.45;;;;;;;;;;5035851;28;20074;-77
2022/05/06 08:08:31;;;;;;;17.13;11.13;;;;;;;;;;5051919;28;20477;-76
2022/05/06 08:10:58;;;;;;;16.87;11.73;;;;;;;;;;5054457;28;20068;-76
2022/05/06 08:13:25;;;;;;;18.50;11.03;;;;;;;;;;5054390;28;20017;-78
2022/05/06 08:15:54;;;;;;;15.33;10.63;;;;;;;;;;5054466;28;20025;-76
2022/05/06 08:18:21;;;;;;;15.23;11.57;;;;;;;;;;5043609;28;20109;-76
2022/05/06 08:20:47;;;;;;;16.23;11.50;;;;;;;;;;5029228;28;20026;-78
2022/05/06 08:23:14;;;;;;;14.47;11.07;;;;;;;;;;5028698;28;20464;-76
2022/05/06 08:25:42;;;;;;;21.50;12.70;;;;;;;;;;5029035;28;20091;-76
2022/05/06 08:28:09;;;;;;;15.57;11.50;;;;;;;;;;5028766;28;20427;-77
2022/05/06 08:30:37;;;;;;;15.97;11.87;;;;;;;;;;5045848;28;20498;-79
2022/05/06 08:33:04;;;;;;;17.40;11.20;;;;;;;;;;5054027;28;20459;-77
2022/05/06 08:35:30;;;;;;;13.80;11.10;;;;;;;;;;5053979;28;20039;-76
2022/05/06 08:37:58;;;;;;;12.77;9.67;;;;;;;;;;5053510;28;20356;-76
2022/05/06 08:40:26;;;;;;;12.70;9.67;;;;;;;;;;5053710;28;20021;-76
2022/05/06 08:42:53;;;;;;;14.13;10.87;;;;;;;;;;5034667;28;20035;-76
2022/05/06 08:50:55;;;;;;;14.37;10.80;;;;;;;;;;5029340;28;20570;-77
2022/05/06 08:53:29;;;;;;;15.30;11.13;;;;;;;;;;5033976;28;20380;-76
2022/05/06 08:55:57;;;;;;;14.30;10.80;;;;;;;;;;5033697;28;20034;-77
2022/05/06 08:58:34;;;;;;;16.20;12.23;;;;;;;;;;5033744;28;20052;-76
2022/05/06 09:01:08;;;;;;;16.33;10.23;;;;;;;;;;5038068;28;20019;-76
2022/05/06 09:03:38;;;;;;;13.85;10.55;;;;;;;;;;5053465;28;20475;-77
2022/05/06 09:06:05;;;;;;;13.87;9.67;;;;;;;;;;5047825;28;20547;-76
2022/05/06 09:08:35;;;;;;;13.73;10.10;;;;;;;;;;5047989;28;20036;-76
2022/05/06 09:11:09;;;;;;;18.40;11.73;;;;;;;;;;5047823;28;20029;-77
2022/05/06 09:13:37;;;;;;;16.43;11.00;;;;;;;;;;5039515;28;20069;-77
2022/05/06 09:19:19;;;;;;;17.37;10.20;;;;;;;;;;5032632;28;20040;-78
2022/05/06 09:22:03;;;;;;;14.37;10.00;;;;;;;;;;5033211;28;20053;-77
2022/05/06 09:24:30;;;;;;;13.33;9.60;;;;;;;;;;5034219;28;20027;-77
2022/05/06 09:27:08;;;;;;;14.83;10.33;;;;;;;;;;5050450;28;20066;-77
2022/05/06 09:29:35;;;;;;;14.10;10.67;;;;;;;;;;5047577;28;20029;-77
2022/05/06 09:32:14;;;;;;;14.10;11.03;;;;;;;;;;5047286;28;20096;-77
2022/05/06 09:34:41;;;;;;;16.27;11.17;;;;;;;;;;5047428;28;20043;-77
2022/05/06 09:37:08;;;;;;;13.90;10.27;;;;;;;;;;5044567;28;20044;-76
2022/05/06 09:39:38;;;;;;;15.00;10.63;;;;;;;;;;5032918;28;20376;-78
2022/05/06 09:42:05;;;;;;;17.93;12.40;;;;;;;;;;5032848;28;20032;-77
2022/05/06 09:44:35;;;;;;;14.73;11.63;;;;;;;;;;5032878;28;20030;-77
2022/05/06 09:47:12;;;;;;;17.13;11.73;;;;;;;;;;5032819;28;20021;-77
2022/05/06 09:49:42;;;;;;;16.10;11.50;;;;;;;;;;5040938;28;20052;-77
2022/05/06 09:52:09;;;;;;;15.00;11.10;;;;;;;;;;5046645;28;20108;-77
2022/05/06 09:54:36;;;;;;;14.07;10.37;;;;;;;;;;5046958;28;20044;-77
2022/05/06 09:57:06;;;;;;;14.40;10.53;;;;;;;;;;5046921;28;20021;-77
2022/05/06 09:59:33;;;;;;;19.57;10.37;;;;;;;;;;5049596;28;20074;-77
2022/05/06 10:02:00;;;;;;;15.60;9.70;;;;;;;;;;5041345;28;20041;-77
2022/05/06 10:04:26;;;;;;;14.00;9.93;;;;;;;;;;5032491;28;20096;-76
2022/05/06 10:06:55;;;;;;;15.53;10.50;;;;;;;;;;5032508;28;20032;-76
2022/05/06 10:09:23;;;;;;;14.87;10.70;;;;;;;;;;5031963;28;20369;-76
2022/05/06 10:11:51;;;;;;;14.93;11.50;;;;;;;;;;5029767;28;20026;-76
2022/05/06 10:14:18;;;;;;;13.30;9.90;;;;;;;;;;5041675;28;20064;-76
2022/05/06 10:16:46;;;;;;;17.13;10.60;;;;;;;;;;5046716;28;20071;-76
2022/05/06 10:19:35;;;;;;;18.03;11.50;;;;;;;;;;5046922;28;20111;-76
2022/05/06 10:22:02;;;;;;;20.40;12.80;;;;;;;;;;5037009;28;20495;-77
2022/05/06 10:24:38;;;;;;;18.43;12.30;;;;;;;;;;5050975;28;20383;-76
2022/05/06 10:27:22;;;;;;;15.70;11.43;;;;;;;;;;5032261;28;20013;-76
2022/05/06 10:32:53;;;;;;;15.93;10.75;;;;;;;;;;5032249;28;20040;-76
2022/05/06 10:35:37;;;;;;;15.60;11.97;;;;;;;;;;5026620;28;20083;-76
2022/05/06 10:38:20;;;;;;;16.97;12.10;;;;;;;;;;5028001;28;20112;-79
2022/05/06 10:41:11;;;;;;;19.77;12.33;;;;;;;;;;5026606;28;20034;-76
2022/05/06 10:43:46;;;;;;;25.83;14.70;;;;;;;;;;5027424;28;20439;-77
2022/05/06 10:46:32;;;;;;;27.70;15.77;;;;;;;;;;5032145;28;20083;-76
2022/05/06 10:48:58;;;;;;;;;;;;;;;;;;5032472;28;20030;-76
2022/05/06 10:51:27;;;;;;;32.90;17.40;;;;;;;;;;5032090;28;19905;-76
2022/05/06 10:53:54;;;;;;;31.87;16.73;;;;;;;;;;5031667;28;20064;-76
2022/05/06 10:56:20;;;;;;;30.33;16.03;;;;;;;;;;5029458;28;20057;-76
2022/05/06 10:58:47;;;;;;;27.00;16.37;;;;;;;;;;5028437;28;20447;-76
2022/05/06 11:01:17;;;;;;;29.83;16.43;;;;;;;;;;5046255;28;20558;-76
2022/05/06 11:03:56;;;;;;;33.57;17.83;;;;;;;;;;5046393;28;20029;-76
2022/05/06 11:06:23;;;;;;;29.77;18.13;;;;;;;;;;5048277;28;20372;-77
2022/05/06 11:08:49;;;;;;;35.70;17.57;;;;;;;;;;5051690;28;20095;-76
2022/05/06 11:11:19;;;;;;;24.87;14.90;;;;;;;;;;5045038;28;20091;-75
2022/05/06 11:13:51;;;;;;;25.80;15.47;;;;;;;;;;5031641;28;20039;-76
2022/05/06 11:16:17;;;;;;;25.40;14.63;;;;;;;;;;5031694;28;20453;-76
2022/05/06 11:18:44;;;;;;;23.77;14.10;;;;;;;;;;5039172;28;20383;-76
2022/05/06 11:21:24;;;;;;;21.43;13.60;;;;;;;;;;5046062;28;20025;-77
2022/05/06 11:23:51;;;;;;;22.87;14.07;;;;;;;;;;5046117;28;20025;-76
2022/05/06 11:26:25;;;;;;;28.63;15.33;;;;;;;;;;5046038;28;20071;-76
2022/05/06 11:29:04;;;;;;;22.73;13.10;;;;;;;;;;5029957;28;20025;-76
2022/05/06 11:31:30;;;;;;;25.63;13.07;;;;;;;;;;5013503;28;20350;-77
2022/05/06 11:33:58;;;;;;;19.53;12.60;;;;;;;;;;5031417;28;20030;-76
2022/05/06 11:36:25;;;;;;;20.70;11.67;;;;;;;;;;5031486;28;20021;-76
2022/05/06 11:38:52;;;;;;;24.37;14.73;;;;;;;;;;5034860;28;20032;-76
2022/05/06 11:41:19;;;;;;;21.03;14.30;;;;;;;;;;5048788;28;20020;-76
2022/05/06 11:43:46;;;;;;;19.87;12.63;;;;;;;;;;5047220;28;20051;-76
2022/05/06 11:49:04;;;;;;;23.97;13.20;;;;;;;;;;5029873;28;20511;-76
2022/05/06 11:51:37;;;;;;;29.23;13.70;;;;;;;;;;5040614;28;20480;-75
2022/05/06 11:54:04;;;;;;;27.57;15.40;;;;;;;;;;5054768;28;20503;-76
2022/05/06 11:56:31;;;;;;;24.47;17.30;;;;;;;;;;5054892;28;20021;-76
2022/05/06 11:58:59;;;;;;;29.50;18.07;;;;;;;;;;5054261;28;20025;-78
2022/05/06 12:01:35;;;;;;;28.20;17.73;;;;;;;;;;5054822;28;20025;-77
2022/05/06 12:04:03;;;;;;;24.33;15.77;;;;;;;;;;5048809;28;20453;-77
2022/05/06 12:06:32;;;;;;;28.00;16.17;;;;;;;;;;5040208;28;20416;-77
2022/05/06 12:09:14;;;;;;;24.63;15.63;;;;;;;;;;5029131;28;20029;-77
2022/05/06 12:11:42;;;;;;;21.13;14.00;;;;;;;;;;5029205;28;20037;-77
2022/05/06 12:14:13;;;;;;;25.60;14.40;;;;;;;;;;5033255;28;20121;-77
2022/05/06 12:16:59;;;;;;;18.07;12.60;;;;;;;;;;5034650;28;20026;-77
2022/05/06 12:19:40;;;;;;;19.07;13.30;;;;;;;;;;5034032;28;20539;-77
2022/05/06 12:22:08;;;;;;;20.20;13.77;;;;;;;;;;5034525;28;20112;-77
2022/05/06 12:24:58;;;;;;;23.33;14.00;;;;;;;;;;5034207;28;20017;-77
2022/05/06 12:27:27;;;;;;;18.80;12.27;;;;;;;;;;5035594;28;20539;-77
2022/05/06 12:29:55;;;;;;;23.97;14.83;;;;;;;;;;5048816;28;20025;-77
2022/05/06 12:32:22;;;;;;;23.80;14.83;;;;;;;;;;5031238;28;20480;-77
2022/05/06 12:35:02;;;;;;;25.33;15.27;;;;;;;;;;5028792;28;20500;-77
2022/05/06 12:37:28;;;;;;;20.27;13.70;;;;;;;;;;5034073;28;20053;-76
2022/05/06 12:39:59;;;;;;;24.93;15.43;;;;;;;;;;5034113;28;20018;-76
2022/05/06 12:42:26;;;;;;;22.77;14.33;;;;;;;;;;5045105;28;20036;-77
2022/05/06 12:44:53;;;;;;;18.47;13.40;;;;;;;;;;5054110;28;20055;-77
2022/05/06 12:50:06;;;;;;;25.93;14.97;;;;;;;;;;5048300;28;20098;-77
2022/05/06 12:52:33;;;;;;;31.47;18.03;;;;;;;;;;5047483;28;20013;-78
2022/05/06 12:55:00;;;;;;;22.83;15.67;;;;;;;;;;5031506;28;20039;-77
2022/05/06 12:57:26;;;;;;;21.30;14.40;;;;;;;;;;5028979;28;20485;-77
2022/05/06 12:59:53;;;;;;;19.23;13.30;;;;;;;;;;5033781;28;20026;-76
2022/05/06 13:02:20;;;;;;;20.80;15.70;;;;;;;;;;5033762;28;20049;-76
2022/05/06 13:04:47;;;;;;;25.67;16.10;;;;;;;;;;5033355;28;20060;-76
2022/05/06 13:07:14;;;;;;;24.27;17.47;;;;;;;;;;5033530;28;20025;-77
2022/05/06 13:09:41;;;;;;;31.93;17.73;;;;;;;;;;5032082;28;20381;-77
2022/05/06 13:12:09;;;;;;;30.43;19.50;;;;;;;;;;5028097;28;20405;-76
2022/05/06 13:14:36;;;;;;;28.30;19.20;;;;;;;;;;5027734;28;20555;-77
2022/05/06 13:17:03;;;;;;;22.10;16.83;;;;;;;;;;5027826;28;20451;-76
2022/05/06 13:19:29;;;;;;;28.57;18.63;;;;;;;;;;5047651;28;20448;-77
2022/05/06 13:21:56;;;;;;;26.17;16.90;;;;;;;;;;5053345;28;20056;-77
2022/05/06 13:24:23;;;;;;;23.50;16.57;;;;;;;;;;5053130;28;20379;-76
2022/05/06 13:26:50;;;;;;;23.97;18.20;;;;;;;;;;5052706;28;20013;-78
2022/05/06 13:29:17;;;;;;;27.40;19.50;;;;;;;;;;5053152;28;20073;-77
2022/05/06 13:31:43;;;;;;;27.37;19.50;;;;;;;;;;5033304;28;20029;-77
2022/05/06 13:34:10;;;;;;;24.40;17.37;;;;;;;;;;5028516;28;20478;-77
2022/05/06 13:36:38;;;;;;;26.00;16.80;;;;;;;;;;5027745;28;20028;-76
2022/05/06 13:39:05;;;;;;;19.17;14.73;;;;;;;;;;5027781;28;20025;-77
2022/05/06 13:41:31;;;;;;;20.57;14.83;;;;;;;;;;5027535;28;20124;-77
2022/05/06 13:43:58;;;;;;;24.93;14.80;;;;;;;;;;5041965;28;20456;-77
2022/05/06 13:46:24;;;;;;;24.23;15.37;;;;;;;;;;5052684;28;20021;-77
2022/05/06 13:48:51;;;;;;;20.20;13.90;;;;;;;;;;5052632;28;20056;-77
2022/05/06 13:51:18;;;;;;;22.10;14.50;;;;;;;;;;5035865;28;20137;-77
2022/05/06 13:53:45;;;;;;;27.33;15.07;;;;;;;;;;5032547;28;20037;-77
2022/05/06 13:59:09;;;;;;;26.20;16.70;;;;;;;;;;5047103;28;20040;-77
2022/05/06 14:01:36;;;;;;;24.57;16.43;;;;;;;;;;5047093;28;20063;-77
2022/05/06 14:04:03;;;;;;;21.47;15.13;;;;;;;;;;5046742;28;20115;-77
2022/05/06 14:06:30;;;;;;;20.37;14.13;;;;;;;;;;5052185;28;20054;-77
2022/05/06 14:08:57;;;;;;;25.13;15.63;;;;;;;;;;5035291;28;20034;-78
2022/05/06 14:11:26;;;;;;;20.17;15.23;;;;;;;;;;5032539;28;20017;-77
2022/05/06 14:13:55;;;;;;;22.97;14.83;;;;;;;;;;5032257;28;20030;-77
2022/05/06 14:16:25;;;;;;;18.90;14.33;;;;;;;;;;5032069;28;20017;-77
2022/05/06 14:18:53;;;;;;;22.83;13.77;;;;;;;;;;5026659;28;20022;-77
2022/05/06 14:21:20;;;;;;;22.47;14.40;;;;;;;;;;5047167;28;20412;-77
2022/05/06 14:23:46;;;;;;;21.70;14.93;;;;;;;;;;5046444;28;20051;-77
2022/05/06 14:26:13;;;;;;;19.27;13.50;;;;;;;;;;5046877;28;20490;-77
2022/05/06 14:28:39;;;;;;;35.53;15.40;;;;;;;;;;5052105;28;20068;-77
2022/05/06 14:31:06;;;;;;;19.73;14.27;;;;;;;;;;5049978;28;20108;-77
2022/05/06 14:33:33;;;;;;;18.53;14.17;;;;;;;;;;5032140;28;20112;-77
2022/05/06 14:35:59;;;;;;;18.93;13.97;;;;;;;;;;5032288;28;20032;-77
2022/05/06 14:38:26;;;;;;;22.80;16.20;;;;;;;;;;5032253;28;20100;-77
2022/05/06 14:40:53;;;;;;;20.67;14.63;;;;;;;;;;5026144;28;20032;-78
2022/05/06 14:43:19;;;;;;;26.23;17.13;;;;;;;;;;5029019;28;20033;-77
2022/05/06 14:45:46;;;;;;;21.33;16.73;;;;;;;;;;5046469;28;20033;-78
2022/05/06 14:48:13;;;;;;;23.53;16.80;;;;;;;;;;5046384;28;20547;-77
2022/05/06 14:50:40;;;;;;;23.30;16.17;;;;;;;;;;5051111;28;20029;-77
2022/05/06 14:53:06;;;;;;;20.80;16.10;;;;;;;;;;5051829;28;20033;-77
2022/05/06 14:55:33;;;;;;;19.97;14.60;;;;;;;;;;5047025;28;20104;-78
2022/05/06 14:58:00;;;;;;;23.20;14.73;;;;;;;;;;5031325;28;20021;-78
2022/05/06 15:00:27;;;;;;;20.13;14.03;;;;;;;;;;5031887;28;20052;-77
2022/05/06 15:02:53;;;;;;;16.23;13.77;;;;;;;;;;5027196;28;20499;-77
2022/05/06 15:05:20;;;;;;;22.07;16.40;;;;;;;;;;5026336;28;20022;-77
2022/05/06 15:07:46;;;;;;;27.27;17.50;;;;;;;;;;5034138;28;20033;-78
2022/05/06 15:10:13;;;;;;;23.10;18.15;;;;;;;;;;5046154;28;20025;-77
2022/05/06 15:12:40;;;;;;;27.02;18.23;;;;;;;;;;5050172;28;20464;-78